sensor_id;sensor_type;location;lat;lon;timestamp;pressure;altitude;pressure_sealevel;temperature;humidity
64713;BME280;51140;45.340;5.980;2023-02-04T00:01:29;99700.00;;;1.58;100.00
64713;BME280;51140;45.340;5.980;2023-02-04T00:03:54;99709.53;;;1.68;100.00
64713;BME280;51140;45.340;5.980;2023-02-04T00:06:19;99716.41;;;1.72;100.00
64713;BME280;51140;45.340;5.980;2023-02-04T00:08:45;99719.91;;;1.80;100.00
64713;BME280;51140;45.340;5.980;2023-02-04T00:11:10;99713.06;;;1.82;100.00
64713;BME280;51140;45.340;5.980;2023-02-04T00:13:36;99712.25;;;1.85;100.00
64713;BME280;51140;45.340;5.980;2023-02-04T00:16:01;99715.66;;;1.84;100.00
64713;BME280;51140;45.340;5.980;2023-02-04T00:18:27;99725.91;;;1.79;100.00
64713;BME280;51140;45.340;5.980;2023-02-04T00:20:53;99724.09;;;1.68;100.00
64713;BME280;51140;45.340;5.980;2023-02-04T00:23:18;99728.22;;;1.55;100.00
64713;BME280;51140;45.340;5.980;2023-02-04T00:25:43;99718.03;;;1.61;100.00
64713;BME280;51140;45.340;5.980;2023-02-04T00:28:09;99729.19;;;1.62;100.00
64713;BME280;51140;45.340;5.980;2023-02-04T00:30:34;99726.53;;;1.57;100.00
64713;BME280;51140;45.340;5.980;2023-02-04T00:33:00;99723.03;;;1.49;100.00
64713;BME280;51140;45.340;5.980;2023-02-04T00:35:25;99726.50;;;1.52;100.00
64713;BME280;51140;45.340;5.980;2023-02-04T00:37:51;99726.53;;;1.58;100.00
64713;BME280;51140;45.340;5.980;2023-02-04T00:40:17;99719.63;;;1.50;100.00
64713;BME280;51140;45.340;5.980;2023-02-04T00:42:42;99729.09;;;1.55;100.00
64713;BME280;51140;45.340;5.980;2023-02-04T00:45:10;99711.06;;;1.51;100.00
64713;BME280;51140;45.340;5.980;2023-02-04T00:47:35;99712.84;;;1.58;100.00
64713;BME280;51140;45.340;5.980;2023-02-04T00:50:01;99718.78;;;1.51;100.00
64713;BME280;51140;45.340;5.980;2023-02-04T00:52:26;99711.94;;;1.51;100.00
64713;BME280;51140;45.340;5.980;2023-02-04T00:54:51;99718.66;;;1.39;100.00
64713;BME280;51140;45.340;5.980;2023-02-04T00:57:17;99716.22;;;1.51;100.00
64713;BME280;51140;45.340;5.980;2023-02-04T00:59:43;99719.66;;;1.54;100.00
64713;BME280;51140;45.340;5.980;2023-02-04T01:02:08;99718.81;;;1.54;100.00
64713;BME280;51140;45.340;5.980;2023-02-04T01:04:34;99707.78;;;1.63;100.00
64713;BME280;51140;45.340;5.980;2023-02-04T01:06:59;99699.97;;;1.53;100.00
64713;BME280;51140;45.340;5.980;2023-02-04T01:09:25;99705.19;;;1.61;100.00
64713;BME280;51140;45.340;5.980;2023-02-04T01:11:50;99690.66;;;1.65;100.00
64713;BME280;51140;45.340;5.980;2023-02-04T01:14:16;99693.25;;;1.66;100.00
64713;BME280;51140;45.340;5.980;2023-02-04T01:16:41;99683.81;;;1.65;100.00
64713;BME280;51140;45.340;5.980;2023-02-04T01:19:07;99675.97;;;1.51;100.00
64713;BME280;51140;45.340;5.980;2023-02-04T01:21:32;99689.66;;;1.49;100.00
64713;BME280;51140;45.340;5.980;2023-02-04T01:23:58;99693.00;;;1.40;100.00
64713;BME280;51140;45.340;5.980;2023-02-04T01:26:23;99687.03;;;1.44;100.00
64713;BME280;51140;45.340;5.980;2023-02-04T01:28:49;99695.63;;;1.48;100.00
64713;BME280;51140;45.340;5.980;2023-02-04T01:31:15;99694.84;;;1.55;100.00
64713;BME280;51140;45.340;5.980;2023-02-04T01:33:40;99702.44;;;1.44;100.00
64713;BME280;51140;45.340;5.980;2023-02-04T01:36:06;99691.34;;;1.48;100.00
64713;BME280;51140;45.340;5.980;2023-02-04T01:38:32;99699.84;;;1.40;100.00
64713;BME280;51140;45.340;5.980;2023-02-04T01:40:58;99711.03;;;1.48;100.00
64713;BME280;51140;45.340;5.980;2023-02-04T01:43:24;99692.28;;;1.55;100.00
64713;BME280;51140;45.340;5.980;2023-02-04T01:45:50;99687.94;;;1.48;100.00
64713;BME280;51140;45.340;5.980;2023-02-04T01:48:16;99688.75;;;1.42;100.00
64713;BME280;51140;45.340;5.980;2023-02-04T01:50:49;99698.19;;;1.45;100.00
64713;BME280;51140;45.340;5.980;2023-02-04T01:53:18;99687.91;;;1.46;100.00
64713;BME280;51140;45.340;5.980;2023-02-04T01:55:44;99683.66;;;1.47;100.00
64713;BME280;51140;45.340;5.980;2023-02-04T01:58:11;99666.50;;;1.46;100.00
64713;BME280;51140;45.340;5.980;2023-02-04T02:00:37;99664.72;;;1.37;100.00
64713;BME280;51140;45.340;5.980;2023-02-04T02:03:04;99663.84;;;1.32;100.00
64713;BME280;51140;45.340;5.980;2023-02-04T02:05:36;99669.81;;;1.33;100.00
64713;BME280;51140;45.340;5.980;2023-02-04T02:08:04;99661.22;;;1.28;100.00
64713;BME280;51140;45.340;5.980;2023-02-04T02:10:30;99671.47;;;1.26;100.00
64713;BME280;51140;45.340;5.980;2023-02-04T02:12:57;99670.56;;;1.21;100.00
64713;BME280;51140;45.340;5.980;2023-02-04T02:15:22;99673.13;;;1.21;100.00
64713;BME280;51140;45.340;5.980;2023-02-04T02:17:49;99680.75;;;1.15;100.00
64713;BME280;51140;45.340;5.980;2023-02-04T02:20:17;99682.44;;;1.13;100.00
64713;BME280;51140;45.340;5.980;2023-02-04T02:25:20;99662.81;;;1.18;100.00
64713;BME280;51140;45.340;5.980;2023-02-04T02:27:46;99660.22;;;1.16;100.00
64713;BME280;51140;45.340;5.980;2023-02-04T02:30:12;99660.19;;;1.13;100.00
64713;BME280;51140;45.340;5.980;2023-02-04T02:32:39;99656.00;;;1.20;100.00
64713;BME280;51140;45.340;5.980;2023-02-04T02:35:05;99645.72;;;1.20;100.00
64713;BME280;51140;45.340;5.980;2023-02-04T02:37:31;99655.91;;;1.12;100.00
64713;BME280;51140;45.340;5.980;2023-02-04T02:39:56;99667.00;;;1.08;100.00
64713;BME280;51140;45.340;5.980;2023-02-04T02:42:22;99666.16;;;1.09;100.00
64713;BME280;51140;45.340;5.980;2023-02-04T02:44:48;99666.16;;;1.09;100.00
64713;BME280;51140;45.340;5.980;2023-02-04T02:47:16;99664.44;;;1.10;100.00
64713;BME280;51140;45.340;5.980;2023-02-04T02:49:42;99678.97;;;1.09;100.00
64713;BME280;51140;45.340;5.980;2023-02-04T02:52:12;99670.44;;;1.10;100.00
64713;BME280;51140;45.340;5.980;2023-02-04T02:54:38;99662.63;;;0.98;100.00
64713;BME280;51140;45.340;5.980;2023-02-04T02:57:13;99677.88;;;0.86;100.00
64713;BME280;51140;45.340;5.980;2023-02-04T02:59:39;99690.66;;;0.81;100.00
64713;BME280;51140;45.340;5.980;2023-02-04T03:02:05;99698.38;;;0.83;100.00
64713;BME280;51140;45.340;5.980;2023-02-04T03:04:34;99706.81;;;0.77;100.00
64713;BME280;51140;45.340;5.980;2023-02-04T03:07:02;99719.63;;;0.74;100.00
64713;BME280;51140;45.340;5.980;2023-02-04T03:09:27;99731.44;;;0.63;100.00
64713;BME280;51140;45.340;5.980;2023-02-04T03:11:53;99743.50;;;0.70;100.00
64713;BME280;51140;45.340;5.980;2023-02-04T03:14:20;99752.91;;;0.71;100.00
64713;BME280;51140;45.340;5.980;2023-02-04T03:16:46;99752.00;;;0.66;100.00
64713;BME280;51140;45.340;5.980;2023-02-04T03:19:13;99759.66;;;0.63;100.00
64713;BME280;51140;45.340;5.980;2023-02-04T03:21:39;99762.19;;;0.60;100.00
64713;BME280;51140;45.340;5.980;2023-02-04T03:24:05;99762.19;;;0.60;100.00
64713;BME280;51140;45.340;5.980;2023-02-04T03:26:31;99764.63;;;0.51;100.00
64713;BME280;51140;45.340;5.980;2023-02-04T03:28:58;99780.78;;;0.45;100.00
64713;BME280;51140;45.340;5.980;2023-02-04T03:31:23;99778.16;;;0.41;100.00
64713;BME280;51140;45.340;5.980;2023-02-04T03:33:48;99788.31;;;0.38;100.00
64713;BME280;51140;45.340;5.980;2023-02-04T03:36:14;99800.22;;;0.34;100.00
64713;BME280;51140;45.340;5.980;2023-02-04T03:38:39;99794.19;;;0.29;100.00
64713;BME280;51140;45.340;5.980;2023-02-04T03:41:05;99807.84;;;0.29;100.00
64713;BME280;51140;45.340;5.980;2023-02-04T03:43:30;99801.84;;;0.27;100.00
64713;BME280;51140;45.340;5.980;2023-02-04T03:45:56;99808.84;;;0.39;100.00
64713;BME280;51140;45.340;5.980;2023-02-04T03:48:21;99796.31;;;0.56;100.00
64713;BME280;51140;45.340;5.980;2023-02-04T03:50:47;99792.03;;;0.56;100.00
64713;BME280;51140;45.340;5.980;2023-02-04T03:53:12;99790.34;;;0.57;100.00
64713;BME280;51140;45.340;5.980;2023-02-04T03:55:38;99781.66;;;0.47;100.00
64713;BME280;51140;45.340;5.980;2023-02-04T03:58:03;99781.69;;;0.50;100.00
64713;BME280;51140;45.340;5.980;2023-02-04T04:00:29;99788.63;;;0.57;100.00
64713;BME280;51140;45.340;5.980;2023-02-04T04:02:56;99780.19;;;0.65;100.00
64713;BME280;51140;45.340;5.980;2023-02-04T04:05:22;99776.75;;;0.62;100.00
64713;BME280;51140;45.340;5.980;2023-02-04T04:07:47;99779.13;;;0.50;100.00
64713;BME280;51140;45.340;5.980;2023-02-04T04:10:13;99780.06;;;0.55;100.00
64713;BME280;51140;45.340;5.980;2023-02-04T04:12:38;99793.69;;;0.51;100.00
64713;BME280;51140;45.340;5.980;2023-02-04T04:15:04;99789.34;;;0.46;100.00
64713;BME280;51140;45.340;5.980;2023-02-04T04:17:30;99791.81;;;0.41;100.00
64713;BME280;51140;45.340;5.980;2023-02-04T04:19:55;99788.47;;;0.45;100.00
64713;BME280;51140;45.340;5.980;2023-02-04T04:22:21;99777.47;;;0.54;100.00
64713;BME280;51140;45.340;5.980;2023-02-04T04:24:46;99780.03;;;0.52;100.00
64713;BME280;51140;45.340;5.980;2023-02-04T04:27:11;99771.63;;;0.62;100.00
64713;BME280;51140;45.340;5.980;2023-02-04T04:29:37;99767.25;;;0.57;100.00
64713;BME280;51140;45.340;5.980;2023-02-04T04:32:02;99757.88;;;0.57;100.00
64713;BME280;51140;45.340;5.980;2023-02-04T04:34:29;99762.22;;;0.63;100.00
64713;BME280;51140;45.340;5.980;2023-02-04T04:36:55;99754.47;;;0.58;100.00
64713;BME280;51140;45.340;5.980;2023-02-04T04:39:20;99746.09;;;0.73;100.00
64713;BME280;51140;45.340;5.980;2023-02-04T04:41:46;99733.19;;;0.67;100.00
64713;BME280;51140;45.340;5.980;2023-02-04T04:44:11;99737.53;;;0.71;100.00
64713;BME280;51140;45.340;5.980;2023-02-04T04:46:37;99729.84;;;0.71;100.00
64713;BME280;51140;45.340;5.980;2023-02-04T04:49:05;99728.13;;;0.72;100.00
64713;BME280;51140;45.340;5.980;2023-02-04T04:51:30;99709.38;;;0.77;100.00
64713;BME280;51140;45.340;5.980;2023-02-04T04:53:56;99692.28;;;0.78;100.00
64713;BME280;51140;45.340;5.980;2023-02-04T04:56:22;99698.22;;;0.72;100.00
64713;BME280;51140;45.340;5.980;2023-02-04T04:58:47;99692.38;;;0.81;100.00
64713;BME280;51140;45.340;5.980;2023-02-04T05:01:12;99674.34;;;0.78;100.00
64713;BME280;51140;45.340;5.980;2023-02-04T05:03:38;99664.16;;;0.81;100.00
64713;BME280;51140;45.340;5.980;2023-02-04T05:06:03;99665.03;;;0.84;100.00
64713;BME280;51140;45.340;5.980;2023-02-04T05:08:29;99663.31;;;0.82;100.00
64713;BME280;51140;45.340;5.980;2023-02-04T05:10:54;99665.84;;;0.80;100.00
64713;BME280;51140;45.340;5.980;2023-02-04T05:13:20;99674.16;;;0.62;100.00
64713;BME280;51140;45.340;5.980;2023-02-04T05:15:45;99706.53;;;0.54;100.00
64713;BME280;51140;45.340;5.980;2023-02-04T05:18:11;99717.66;;;0.53;100.00
64713;BME280;51140;45.340;5.980;2023-02-04T05:20:36;99739.06;;;0.58;100.00
64713;BME280;51140;45.340;5.980;2023-02-04T05:23:01;99750.22;;;0.60;100.00
64713;BME280;51140;45.340;5.980;2023-02-04T05:25:27;99760.34;;;0.50;100.00
64713;BME280;51140;45.340;5.980;2023-02-04T05:27:53;99770.78;;;0.65;100.00
64713;BME280;51140;45.340;5.980;2023-02-04T05:30:19;99767.38;;;0.65;100.00
64713;BME280;51140;45.340;5.980;2023-02-04T05:32:45;99754.66;;;0.74;100.00
64713;BME280;51140;45.340;5.980;2023-02-04T05:35:10;99741.91;;;0.80;100.00
64713;BME280;51140;45.340;5.980;2023-02-04T05:37:35;99726.59;;;0.84;100.00
64713;BME280;51140;45.340;5.980;2023-02-04T05:40:02;99731.56;;;0.74;100.00
64713;BME280;51140;45.340;5.980;2023-02-04T05:42:28;99735.16;;;0.85;100.00
64713;BME280;51140;45.340;5.980;2023-02-04T05:44:53;99695.13;;;0.99;100.00
64713;BME280;51140;45.340;5.980;2023-02-04T05:47:18;99684.91;;;1.02;100.00
64713;BME280;51140;45.340;5.980;2023-02-04T05:49:45;99665.28;;;1.09;100.00
64713;BME280;51140;45.340;5.980;2023-02-04T05:52:10;99650.69;;;1.03;100.00
64713;BME280;51140;45.340;5.980;2023-02-04T05:54:36;99645.50;;;0.96;100.00
64713;BME280;51140;45.340;5.980;2023-02-04T05:57:01;99649.66;;;0.84;100.00
64713;BME280;51140;45.340;5.980;2023-02-04T05:59:27;99654.56;;;0.69;100.00
64713;BME280;51140;45.340;5.980;2023-02-04T06:01:52;99658.91;;;0.73;100.00
64713;BME280;51140;45.340;5.980;2023-02-04T06:04:18;99661.44;;;0.72;100.00
64713;BME280;51140;45.340;5.980;2023-02-04T06:06:44;99672.56;;;0.71;100.00
64713;BME280;51140;45.340;5.980;2023-02-04T06:09:09;99669.97;;;0.69;100.00
64713;BME280;51140;45.340;5.980;2023-02-04T06:11:35;99681.06;;;0.67;100.00
64713;BME280;51140;45.340;5.980;2023-02-04T06:14:01;99683.56;;;0.62;100.00
64713;BME280;51140;45.340;5.980;2023-02-04T06:16:26;99691.88;;;0.43;100.00
64713;BME280;51140;45.340;5.980;2023-02-04T06:18:52;99697.75;;;0.37;100.00
64713;BME280;51140;45.340;5.980;2023-02-04T06:21:17;99719.13;;;0.38;100.00
64713;BME280;51140;45.340;5.980;2023-02-04T06:23:43;99720.81;;;0.37;100.00
64713;BME280;51140;45.340;5.980;2023-02-04T06:26:08;99727.59;;;0.32;100.00
64713;BME280;51140;45.340;5.980;2023-02-04T06:28:34;99737.81;;;0.30;100.00
64713;BME280;51140;45.340;5.980;2023-02-04T06:30:59;99759.88;;;0.19;100.00
64713;BME280;51140;45.340;5.980;2023-02-04T06:33:24;99766.47;;;0.04;100.00
64713;BME280;51140;45.340;5.980;2023-02-04T06:35:50;99786.13;;;0.06;100.00
64713;BME280;51140;45.340;5.980;2023-02-04T06:38:15;99792.13;;;0.07;100.00
64713;BME280;51140;45.340;5.980;2023-02-04T06:40:41;99808.34;;;0.07;100.00
64713;BME280;51140;45.340;5.980;2023-02-04T06:43:06;99816.00;;;0.04;100.00
64713;BME280;51140;45.340;5.980;2023-02-04T06:45:32;99829.75;;;0.09;100.00
64713;BME280;51140;45.340;5.980;2023-02-04T06:47:57;99816.16;;;0.13;100.00
64713;BME280;51140;45.340;5.980;2023-02-04T06:50:23;99828.81;;;0.04;100.00
64713;BME280;51140;45.340;5.980;2023-02-04T06:52:48;99821.78;;;-0.05;100.00
64713;BME280;51140;45.340;5.980;2023-02-04T06:55:15;99835.63;;;0.04;100.00
64713;BME280;51140;45.340;5.980;2023-02-04T06:57:41;99830.50;;;0.04;100.00
64713;BME280;51140;45.340;5.980;2023-02-04T07:00:08;99835.84;;;0.16;100.00
64713;BME280;51140;45.340;5.980;2023-02-04T07:02:34;99830.84;;;0.25;100.00
64713;BME280;51140;45.340;5.980;2023-02-04T07:04:59;99820.97;;;0.46;100.00
64713;BME280;51140;45.340;5.980;2023-02-04T07:07:26;99788.88;;;0.74;100.00
64713;BME280;51140;45.340;5.980;2023-02-04T07:09:51;99775.31;;;0.81;100.00
64713;BME280;51140;45.340;5.980;2023-02-04T07:12:17;99745.41;;;0.83;100.00
64713;BME280;51140;45.340;5.980;2023-02-04T07:14:42;99748.00;;;0.85;100.00
64713;BME280;51140;45.340;5.980;2023-02-04T07:17:08;99725.84;;;0.91;100.00
64713;BME280;51140;45.340;5.980;2023-02-04T07:19:33;99715.63;;;0.96;100.00
64713;BME280;51140;45.340;5.980;2023-02-04T07:22:00;99707.97;;;0.99;100.00
64713;BME280;51140;45.340;5.980;2023-02-04T07:24:26;99721.50;;;0.86;100.00
64713;BME280;51140;45.340;5.980;2023-02-04T07:26:51;99717.97;;;0.79;100.00
64713;BME280;51140;45.340;5.980;2023-02-04T07:29:16;99719.81;;;0.89;100.00
64713;BME280;51140;45.340;5.980;2023-02-04T07:31:43;99714.81;;;1.00;100.00
64713;BME280;51140;45.340;5.980;2023-02-04T07:34:11;99724.25;;;1.04;100.00
64713;BME280;51140;45.340;5.980;2023-02-04T07:36:37;99703.66;;;0.98;100.00
64713;BME280;51140;45.340;5.980;2023-02-04T07:39:02;99708.81;;;0.98;100.00
64713;BME280;51140;45.340;5.980;2023-02-04T07:41:28;99695.97;;;0.97;100.00
64713;BME280;51140;45.340;5.980;2023-02-04T07:43:53;99702.75;;;0.93;100.00
64713;BME280;51140;45.340;5.980;2023-02-04T07:46:19;99701.00;;;0.89;100.00
64713;BME280;51140;45.340;5.980;2023-02-04T07:48:44;99692.44;;;0.88;100.00
64713;BME280;51140;45.340;5.980;2023-02-04T07:51:09;99697.63;;;0.93;100.00
64713;BME280;51140;45.340;5.980;2023-02-04T07:53:35;99691.69;;;0.97;100.00
64713;BME280;51140;45.340;5.980;2023-02-04T07:56:00;99710.38;;;0.85;100.00
64713;BME280;51140;45.340;5.980;2023-02-04T07:58:26;99716.34;;;0.84;100.00
64713;BME280;51140;45.340;5.980;2023-02-04T08:00:51;99713.94;;;0.98;100.00
64713;BME280;51140;45.340;5.980;2023-02-04T08:03:16;99715.72;;;1.04;100.00
64713;BME280;51140;45.340;5.980;2023-02-04T08:05:42;99710.53;;;0.99;100.00
64713;BME280;51140;45.340;5.980;2023-02-04T08:08:07;99705.47;;;1.05;100.00
64713;BME280;51140;45.340;5.980;2023-02-04T08:10:33;99697.72;;;1.01;100.00
64713;BME280;51140;45.340;5.980;2023-02-04T08:12:58;99685.78;;;1.04;100.00
64713;BME280;51140;45.340;5.980;2023-02-04T08:15:23;99690.06;;;1.05;100.00
64713;BME280;51140;45.340;5.980;2023-02-04T08:17:49;99693.53;;;1.10;100.00
64713;BME280;51140;45.340;5.980;2023-02-04T08:20:14;99697.03;;;1.18;100.00
64713;BME280;51140;45.340;5.980;2023-02-04T08:22:41;99685.16;;;1.25;100.00
64713;BME280;51140;45.340;5.980;2023-02-04T08:25:06;99674.91;;;1.27;100.00
64713;BME280;51140;45.340;5.980;2023-02-04T08:27:32;99653.56;;;1.34;100.00
64713;BME280;51140;45.340;5.980;2023-02-04T08:29:57;99644.19;;;1.36;100.00
64713;BME280;51140;45.340;5.980;2023-02-04T08:32:23;99639.88;;;1.35;100.00
64713;BME280;51140;45.340;5.980;2023-02-04T08:34:48;99623.63;;;1.36;100.00
64713;BME280;51140;45.340;5.980;2023-02-04T08:37:14;99624.44;;;1.29;100.00
64713;BME280;51140;45.340;5.980;2023-02-04T08:39:39;99627.88;;;1.29;100.00
64713;BME280;51140;45.340;5.980;2023-02-04T08:42:10;99624.53;;;1.39;100.00
64713;BME280;51140;45.340;5.980;2023-02-04T08:44:35;99627.94;;;1.37;100.00
64713;BME280;51140;45.340;5.980;2023-02-04T08:47:01;99621.91;;;1.33;100.00
64713;BME280;51140;45.340;5.980;2023-02-04T08:49:26;99613.41;;;1.42;100.00
64713;BME280;51140;45.340;5.980;2023-02-04T08:51:52;99607.44;;;1.46;100.00
64713;BME280;51140;45.340;5.980;2023-02-04T08:54:17;99608.34;;;1.49;100.00
64713;BME280;51140;45.340;5.980;2023-02-04T08:56:43;99596.41;;;1.59;100.00
64713;BME280;51140;45.340;5.980;2023-02-04T08:59:08;99582.81;;;1.68;100.00
64713;BME280;51140;45.340;5.980;2023-02-04T09:01:33;99564.06;;;1.82;100.00
64713;BME280;51140;45.340;5.980;2023-02-04T09:03:59;99544.50;;;2.10;100.00
64713;BME280;51140;45.340;5.980;2023-02-04T09:06:24;99538.59;;;2.36;100.00
64713;BME280;51140;45.340;5.980;2023-02-04T09:08:49;99530.88;;;2.33;100.00
64713;BME280;51140;45.340;5.980;2023-02-04T09:11:15;99514.66;;;2.44;100.00
64713;BME280;51140;45.340;5.980;2023-02-04T09:13:40;99491.50;;;2.49;100.00
64713;BME280;51140;45.340;5.980;2023-02-04T09:16:05;99484.66;;;2.62;100.00
64713;BME280;51140;45.340;5.980;2023-02-04T09:18:31;99480.38;;;2.51;100.00
64713;BME280;51140;45.340;5.980;2023-02-04T09:20:58;99460.66;;;2.79;100.00
64713;BME280;51140;45.340;5.980;2023-02-04T09:23:24;99458.09;;;2.96;100.00
64713;BME280;51140;45.340;5.980;2023-02-04T09:25:50;99453.81;;;2.98;100.00
64713;BME280;51140;45.340;5.980;2023-02-04T09:28:15;99444.38;;;2.93;100.00
64713;BME280;51140;45.340;5.980;2023-02-04T09:30:43;99439.22;;;2.94;100.00
64713;BME280;51140;45.340;5.980;2023-02-04T09:33:10;99438.34;;;3.04;100.00
64713;BME280;51140;45.340;5.980;2023-02-04T09:35:36;99451.22;;;3.04;100.00
64713;BME280;51140;45.340;5.980;2023-02-04T09:38:01;99453.81;;;3.01;100.00
64713;BME280;51140;45.340;5.980;2023-02-04T09:40:29;99445.22;;;3.07;100.00
64713;BME280;51140;45.340;5.980;2023-02-04T09:42:55;99443.50;;;3.12;100.00
64713;BME280;51140;45.340;5.980;2023-02-04T09:45:24;99454.63;;;3.34;100.00
64713;BME280;51140;45.340;5.980;2023-02-04T09:47:51;99442.53;;;3.57;100.00
64713;BME280;51140;45.340;5.980;2023-02-04T09:50:20;99427.06;;;3.72;100.00
64713;BME280;51140;45.340;5.980;2023-02-04T09:52:48;99417.63;;;3.65;100.00
64713;BME280;51140;45.340;5.980;2023-02-04T09:55:17;99425.41;;;3.47;100.00
64713;BME280;51140;45.340;5.980;2023-02-04T09:57:42;99425.38;;;3.53;100.00
64713;BME280;51140;45.340;5.980;2023-02-04T10:00:21;99421.97;;;3.45;100.00
64713;BME280;51140;45.340;5.980;2023-02-04T10:02:46;99431.41;;;3.61;100.00
64713;BME280;51140;45.340;5.980;2023-02-04T10:05:17;99430.47;;;3.77;100.00
64713;BME280;51140;45.340;5.980;2023-02-04T10:07:44;99420.09;;;3.88;100.00
64713;BME280;51140;45.340;5.980;2023-02-04T10:10:16;99413.16;;;3.98;100.00
64713;BME280;51140;45.340;5.980;2023-02-04T10:12:43;99414.03;;;3.95;100.00
64713;BME280;51140;45.340;5.980;2023-02-04T10:15:16;99417.34;;;4.22;100.00
64713;BME280;51140;45.340;5.980;2023-02-04T10:17:47;99401.59;;;4.61;100.00
64713;BME280;51140;45.340;5.980;2023-02-04T10:20:18;99386.84;;;5.64;100.00
64713;BME280;51140;45.340;5.980;2023-02-04T10:22:46;99356.69;;;6.80;100.00
64713;BME280;51140;45.340;5.980;2023-02-04T10:25:13;99312.91;;;7.96;100.00
64713;BME280;51140;45.340;5.980;2023-02-04T10:28:08;99328.91;;;7.78;100.00
64713;BME280;51140;45.340;5.980;2023-02-04T10:30:38;99338.53;;;8.11;100.00
64713;BME280;51140;45.340;5.980;2023-02-04T10:33:13;99347.25;;;7.26;100.00
64713;BME280;51140;45.340;5.980;2023-02-04T10:35:47;99342.19;;;7.18;100.00
64713;BME280;51140;45.340;5.980;2023-02-04T10:38:14;99332.66;;;7.65;100.00
64713;BME280;51140;45.340;5.980;2023-02-04T10:40:39;99346.09;;;7.82;100.00
64713;BME280;51140;45.340;5.980;2023-02-04T10:43:07;99344.75;;;8.04;100.00
64713;BME280;51140;45.340;5.980;2023-02-04T10:45:34;99333.59;;;7.99;100.00
64713;BME280;51140;45.340;5.980;2023-02-04T10:47:59;99340.00;;;8.23;100.00
64713;BME280;51140;45.340;5.980;2023-02-04T10:50:26;99343.84;;;8.45;100.00
64713;BME280;51140;45.340;5.980;2023-02-04T10:52:56;99339.69;;;8.37;100.00
64713;BME280;51140;45.340;5.980;2023-02-04T10:55:45;99340.00;;;8.23;100.00
64713;BME280;51140;45.340;5.980;2023-02-04T10:58:16;99340.94;;;8.19;100.00
64713;BME280;51140;45.340;5.980;2023-02-04T11:00:42;99334.44;;;8.01;100.00
64713;BME280;51140;45.340;5.980;2023-02-04T11:03:27;99317.59;;;8.19;100.00
64713;BME280;51140;45.340;5.980;2023-02-04T11:05:59;99322.19;;;8.08;100.00
64713;BME280;51140;45.340;5.980;2023-02-04T11:08:35;99323.22;;;7.99;100.00
64713;BME280;51140;45.340;5.980;2023-02-04T11:11:07;99321.88;;;7.83;100.00
64713;BME280;51140;45.340;5.980;2023-02-04T11:18:58;99309.88;;;7.77;100.00
64713;BME280;51140;45.340;5.980;2023-02-04T11:21:25;99310.25;;;7.59;100.00
64713;BME280;51140;45.340;5.980;2023-02-04T11:34:43;99284.69;;;8.57;100.00
64713;BME280;51140;45.340;5.980;2023-02-04T11:37:14;99280.63;;;8.81;100.00
64713;BME280;51140;45.340;5.980;2023-02-04T11:39:45;99274.75;;;8.72;100.00
64713;BME280;51140;45.340;5.980;2023-02-04T11:42:38;99277.56;;;8.97;100.00
64713;BME280;51140;45.340;5.980;2023-02-04T11:45:13;99279.19;;;9.32;100.00
64713;BME280;51140;45.340;5.980;2023-02-04T11:47:39;99270.38;;;9.36;100.00
64713;BME280;51140;45.340;5.980;2023-02-04T11:50:34;99263.06;;;9.49;100.00
64713;BME280;51140;45.340;5.980;2023-02-04T11:53:03;99255.00;;;9.86;100.00
64713;BME280;51140;45.340;5.980;2023-02-04T11:55:30;99262.81;;;10.14;100.00
64713;BME280;51140;45.340;5.980;2023-02-04T11:57:56;99262.44;;;10.26;100.00
64713;BME280;51140;45.340;5.980;2023-02-04T12:00:29;99248.84;;;10.70;100.00
64713;BME280;51140;45.340;5.980;2023-02-04T12:03:03;99262.84;;;10.92;100.00
64713;BME280;51140;45.340;5.980;2023-02-04T12:05:40;99256.06;;;11.35;100.00
64713;BME280;51140;45.340;5.980;2023-02-04T12:08:30;99275.31;;;11.77;100.00
64713;BME280;51140;45.340;5.980;2023-02-04T12:11:10;99294.03;;;12.12;100.00
64713;BME280;51140;45.340;5.980;2023-02-04T12:13:56;99279.22;;;12.95;100.00
64713;BME280;51140;45.340;5.980;2023-02-04T12:16:22;99319.47;;;12.50;100.00
64713;BME280;51140;45.340;5.980;2023-02-04T12:18:48;99302.63;;;13.58;100.00
64713;BME280;51140;45.340;5.980;2023-02-04T12:21:14;99362.81;;;14.34;100.00
64713;BME280;51140;45.340;5.980;2023-02-04T12:23:39;99406.69;;;14.50;100.00
64713;BME280;51140;45.340;5.980;2023-02-04T12:26:07;99393.69;;;15.52;100.00
64713;BME280;51140;45.340;5.980;2023-02-04T12:28:32;99536.81;;;18.30;100.00
64713;BME280;51140;45.340;5.980;2023-02-04T12:30:58;99694.50;;;18.99;100.00
64713;BME280;51140;45.340;5.980;2023-02-04T12:33:23;99693.25;;;19.04;100.00
64713;BME280;51140;45.340;5.980;2023-02-04T12:35:49;99745.75;;;20.61;100.00
64713;BME280;51140;45.340;5.980;2023-02-04T12:38:14;99769.78;;;19.34;100.00
64713;BME280;51140;45.340;5.980;2023-02-04T12:40:40;99690.38;;;17.75;100.00
64713;BME280;51140;45.340;5.980;2023-02-04T12:43:05;99738.50;;;20.11;100.00
64713;BME280;51140;45.340;5.980;2023-02-04T12:45:31;99694.25;;;17.36;100.00
64713;BME280;51140;45.340;5.980;2023-02-04T12:47:57;99521.66;;;15.84;100.00
64713;BME280;51140;45.340;5.980;2023-02-04T12:50:23;99514.28;;;16.90;100.00
64713;BME280;51140;45.340;5.980;2023-02-04T12:52:56;99587.38;;;17.32;100.00
64713;BME280;51140;45.340;5.980;2023-02-04T12:55:23;99554.44;;;16.94;100.00
64713;BME280;51140;45.340;5.980;2023-02-04T12:57:49;99482.53;;;15.44;100.00
64713;BME280;51140;45.340;5.980;2023-02-04T13:00:16;99359.44;;;13.37;100.00
64713;BME280;51140;45.340;5.980;2023-02-04T13:02:42;99266.84;;;12.38;100.00
64713;BME280;51140;45.340;5.980;2023-02-04T13:05:08;99216.75;;;11.84;100.00
64713;BME280;51140;45.340;5.980;2023-02-04T13:07:34;99186.22;;;11.65;100.00
64713;BME280;51140;45.340;5.980;2023-02-04T13:10:00;99175.50;;;11.49;100.00
64713;BME280;51140;45.340;5.980;2023-02-04T13:12:25;99158.34;;;11.20;100.00
64713;BME280;51140;45.340;5.980;2023-02-04T13:14:51;99143.91;;;11.11;100.00
64713;BME280;51140;45.340;5.980;2023-02-04T13:17:16;99134.06;;;10.96;100.00